sensor_id;sensor_type;location;lat;lon;timestamp;pressure;altitude;pressure_sealevel;temperature;humidity
71465;BME280;59274;49.874;9.154;2023-02-15T00:02:25;101955.13;;;1.88;100.00
71465;BME280;59274;49.874;9.154;2023-02-15T00:04:51;101954.59;;;1.81;100.00
71465;BME280;59274;49.874;9.154;2023-02-15T00:07:18;101956.47;;;1.86;100.00
71465;BME280;59274;49.874;9.154;2023-02-15T00:09:46;101955.69;;;1.80;100.00
71465;BME280;59274;49.874;9.154;2023-02-15T00:12:13;101956.75;;;1.84;100.00
71465;BME280;59274;49.874;9.154;2023-02-15T00:14:38;101953.50;;;1.92;100.00
71465;BME280;59274;49.874;9.154;2023-02-15T00:17:04;101948.97;;;1.88;100.00
71465;BME280;59274;49.874;9.154;2023-02-15T00:19:29;101944.66;;;1.92;100.00
71465;BME280;59274;49.874;9.154;2023-02-15T00:21:55;101945.19;;;1.94;100.00
71465;BME280;59274;49.874;9.154;2023-02-15T00:24:21;101942.78;;;1.98;100.00
71465;BME280;59274;49.874;9.154;2023-02-15T00:26:47;101937.13;;;1.99;100.00
71465;BME280;59274;49.874;9.154;2023-02-15T00:29:14;101945.16;;;2.09;100.00
71465;BME280;59274;49.874;9.154;2023-02-15T00:31:40;101925.84;;;2.17;100.00
71465;BME280;59274;49.874;9.154;2023-02-15T00:34:10;101925.84;;;2.17;100.00
71465;BME280;59274;49.874;9.154;2023-02-15T00:36:36;101925.88;;;2.12;100.00
71465;BME280;59274;49.874;9.154;2023-02-15T00:39:03;101937.59;;;2.21;100.00
71465;BME280;59274;49.874;9.154;2023-02-15T00:41:30;101924.22;;;2.16;100.00
71465;BME280;59274;49.874;9.154;2023-02-15T00:43:56;101928.53;;;2.17;100.00
71465;BME280;59274;49.874;9.154;2023-02-15T00:46:21;101929.41;;;1.98;100.00
71465;BME280;59274;49.874;9.154;2023-02-15T00:48:47;101932.59;;;1.94;100.00
71465;BME280;59274;49.874;9.154;2023-02-15T00:51:12;101927.53;;;1.98;100.00
71465;BME280;59274;49.874;9.154;2023-02-15T00:53:37;101925.09;;;2.02;100.00
71465;BME280;59274;49.874;9.154;2023-02-15T00:56:03;101922.69;;;2.05;100.00
71465;BME280;59274;49.874;9.154;2023-02-15T00:58:28;101926.16;;;2.01;100.00
71465;BME280;59274;49.874;9.154;2023-02-15T01:00:54;101914.91;;;2.04;100.00
71465;BME280;59274;49.874;9.154;2023-02-15T01:03:20;101918.13;;;2.01;100.00
71465;BME280;59274;49.874;9.154;2023-02-15T01:05:47;101907.44;;;1.90;100.00
71465;BME280;59274;49.874;9.154;2023-02-15T01:08:13;101900.72;;;1.93;100.00
71465;BME280;59274;49.874;9.154;2023-02-15T01:10:38;101903.13;;;1.94;100.00
71465;BME280;59274;49.874;9.154;2023-02-15T01:13:04;101897.53;;;1.91;100.00
71465;BME280;59274;49.874;9.154;2023-02-15T01:15:29;101901.28;;;1.85;100.00
71465;BME280;59274;49.874;9.154;2023-02-15T01:17:55;101905.88;;;1.84;100.00
71465;BME280;59274;49.874;9.154;2023-02-15T01:20:26;101899.44;;;1.80;100.00
71465;BME280;59274;49.874;9.154;2023-02-15T01:22:54;101901.28;;;1.85;100.00
71465;BME280;59274;49.874;9.154;2023-02-15T01:25:22;101890.31;;;1.91;100.00
71465;BME280;59274;49.874;9.154;2023-02-15T01:27:48;101891.31;;;2.01;100.00
71465;BME280;59274;49.874;9.154;2023-02-15T01:30:14;101886.25;;;1.94;100.00
71465;BME280;59274;49.874;9.154;2023-02-15T01:32:41;101899.66;;;1.94;100.00
71465;BME280;59274;49.874;9.154;2023-02-15T01:35:07;101894.59;;;1.87;100.00
71465;BME280;59274;49.874;9.154;2023-02-15T01:37:33;101896.97;;;1.94;100.00
71465;BME280;59274;49.874;9.154;2023-02-15T01:39:59;101887.63;;;1.86;100.00
71465;BME280;59274;49.874;9.154;2023-02-15T01:42:26;101887.34;;;1.88;100.00
71465;BME280;59274;49.874;9.154;2023-02-15T01:44:52;101882.81;;;1.88;100.00
71465;BME280;59274;49.874;9.154;2023-02-15T01:50:08;101884.06;;;2.11;100.00
71465;BME280;59274;49.874;9.154;2023-02-15T01:52:37;101884.16;;;1.81;100.00
71465;BME280;59274;49.874;9.154;2023-02-15T01:55:04;101875.84;;;1.87;100.00
71465;BME280;59274;49.874;9.154;2023-02-15T01:57:33;101876.91;;;1.91;100.00
71465;BME280;59274;49.874;9.154;2023-02-15T01:59:59;101869.38;;;1.99;100.00
71465;BME280;59274;49.874;9.154;2023-02-15T02:02:26;101876.09;;;1.96;100.00
71465;BME280;59274;49.874;9.154;2023-02-15T02:04:58;101862.94;;;2.00;100.00
71465;BME280;59274;49.874;9.154;2023-02-15T02:07:27;101860.03;;;1.91;100.00
71465;BME280;59274;49.874;9.154;2023-02-15T02:09:53;101848.53;;;1.85;100.00
71465;BME280;59274;49.874;9.154;2023-02-15T02:12:19;101846.13;;;1.79;100.00
71465;BME280;59274;49.874;9.154;2023-02-15T02:14:47;101850.72;;;1.73;100.00
71465;BME280;59274;49.874;9.154;2023-02-15T02:17:27;101843.16;;;1.85;100.00
71465;BME280;59274;49.874;9.154;2023-02-15T02:20:16;101849.31;;;1.86;100.00
71465;BME280;59274;49.874;9.154;2023-02-15T02:34:22;101845.81;;;1.95;100.00
71465;BME280;59274;49.874;9.154;2023-02-15T02:36:58;101842.84;;;2.02;100.00
71465;BME280;59274;49.874;9.154;2023-02-15T02:39:56;101847.94;;;2.04;100.00
71465;BME280;59274;49.874;9.154;2023-02-15T02:44:59;101831.13;;;1.78;100.00
71465;BME280;59274;49.874;9.154;2023-02-15T02:47:35;101830.63;;;1.76;100.00
71465;BME280;59274;49.874;9.154;2023-02-15T02:50:09;101826.59;;;1.78;100.00
71465;BME280;59274;49.874;9.154;2023-02-15T02:52:42;101820.66;;;1.91;100.00
71465;BME280;59274;49.874;9.154;2023-02-15T02:55:39;101832.75;;;1.84;100.00
71465;BME280;59274;49.874;9.154;2023-02-15T02:58:15;101824.72;;;1.84;100.00
71465;BME280;59274;49.874;9.154;2023-02-15T03:00:57;101828.69;;;1.86;100.00
71465;BME280;59274;49.874;9.154;2023-02-15T03:03:36;101824.91;;;1.92;100.00
71465;BME280;59274;49.874;9.154;2023-02-15T03:06:20;101816.88;;;1.92;100.00
71465;BME280;59274;49.874;9.154;2023-02-15T03:08:54;101814.22;;;1.92;100.00
71465;BME280;59274;49.874;9.154;2023-02-15T03:11:22;101815.53;;;1.95;100.00
71465;BME280;59274;49.874;9.154;2023-02-15T03:13:48;101812.53;;;2.07;100.00
71465;BME280;59274;49.874;9.154;2023-02-15T03:16:15;101819.75;;;2.11;100.00
71465;BME280;59274;49.874;9.154;2023-02-15T03:19:01;101817.88;;;2.07;100.00
71465;BME280;59274;49.874;9.154;2023-02-15T03:21:34;101829.09;;;2.14;100.00
71465;BME280;59274;49.874;9.154;2023-02-15T03:24:07;101832.31;;;2.16;100.00
71465;BME280;59274;49.874;9.154;2023-02-15T03:26:38;101831.19;;;2.27;100.00
71465;BME280;59274;49.874;9.154;2023-02-15T03:29:06;101826.38;;;2.24;100.00
71465;BME280;59274;49.874;9.154;2023-02-15T03:31:36;101817.03;;;2.16;100.00
71465;BME280;59274;49.874;9.154;2023-02-15T03:34:04;101821.03;;;2.24;100.00
71465;BME280;59274;49.874;9.154;2023-02-15T03:36:50;101817.81;;;2.22;100.00
71465;BME280;59274;49.874;9.154;2023-02-15T03:42:17;101804.41;;;2.22;100.00
71465;BME280;59274;49.874;9.154;2023-02-15T03:44:53;101818.16;;;2.10;100.00
71465;BME280;59274;49.874;9.154;2023-02-15T03:47:26;101817.94;;;1.96;100.00
71465;BME280;59274;49.874;9.154;2023-02-15T03:50:09;101820.56;;;2.07;100.00
71465;BME280;59274;49.874;9.154;2023-02-15T03:52:57;101814.63;;;2.20;100.00
71465;BME280;59274;49.874;9.154;2023-02-15T03:55:25;101816.50;;;2.19;100.00
71465;BME280;59274;49.874;9.154;2023-02-15T03:57:51;101815.16;;;2.17;100.00
71465;BME280;59274;49.874;9.154;2023-02-15T04:00:37;101814.84;;;2.23;100.00
71465;BME280;59274;49.874;9.154;2023-02-15T04:03:26;101815.41;;;2.20;100.00
71465;BME280;59274;49.874;9.154;2023-02-15T04:05:56;101806.59;;;2.15;100.00
71465;BME280;59274;49.874;9.154;2023-02-15T04:08:22;101807.16;;;2.12;100.00
71465;BME280;59274;49.874;9.154;2023-02-15T04:11:07;101813.25;;;2.22;100.00
71465;BME280;59274;49.874;9.154;2023-02-15T04:13:33;101811.94;;;2.15;100.00
71465;BME280;59274;49.874;9.154;2023-02-15T04:15:58;101814.91;;;2.18;100.00
71465;BME280;59274;49.874;9.154;2023-02-15T04:21:14;101809.53;;;2.13;100.00
71465;BME280;59274;49.874;9.154;2023-02-15T04:23:59;101806.09;;;2.08;100.00
71465;BME280;59274;49.874;9.154;2023-02-15T04:26:43;101807.16;;;2.07;100.00
71465;BME280;59274;49.874;9.154;2023-02-15T04:29:08;101797.81;;;2.04;100.00
71465;BME280;59274;49.874;9.154;2023-02-15T04:31:33;101796.75;;;2.05;100.00
71465;BME280;59274;49.874;9.154;2023-02-15T04:33:59;101790.59;;;2.05;100.00
71465;BME280;59274;49.874;9.154;2023-02-15T04:36:24;101797.31;;;1.97;100.00
71465;BME280;59274;49.874;9.154;2023-02-15T04:38:50;101794.28;;;2.14;100.00
71465;BME280;59274;49.874;9.154;2023-02-15T04:41:15;101788.94;;;2.09;100.00
71465;BME280;59274;49.874;9.154;2023-02-15T04:43:40;101791.31;;;2.15;100.00
71465;BME280;59274;49.874;9.154;2023-02-15T04:46:06;101791.59;;;2.14;100.00
71465;BME280;59274;49.874;9.154;2023-02-15T04:48:31;101790.78;;;2.13;100.00
71465;BME280;59274;49.874;9.154;2023-02-15T04:50:57;101792.09;;;2.21;100.00
71465;BME280;59274;49.874;9.154;2023-02-15T04:53:22;101791.59;;;2.14;100.00
71465;BME280;59274;49.874;9.154;2023-02-15T04:55:48;101789.09;;;1.83;100.00
71465;BME280;59274;49.874;9.154;2023-02-15T04:58:13;101797.88;;;1.94;100.00
71465;BME280;59274;49.874;9.154;2023-02-15T05:00:38;101796.03;;;1.89;100.00
71465;BME280;59274;49.874;9.154;2023-02-15T05:03:04;101795.44;;;1.98;100.00
71465;BME280;59274;49.874;9.154;2023-02-15T05:05:29;101793.28;;;2.05;100.00
71465;BME280;59274;49.874;9.154;2023-02-15T05:07:55;101793.22;;;2.10;100.00
71465;BME280;59274;49.874;9.154;2023-02-15T05:10:20;101800.94;;;2.21;100.00
71465;BME280;59274;49.874;9.154;2023-02-15T05:12:45;101796.16;;;2.13;100.00
71465;BME280;59274;49.874;9.154;2023-02-15T05:15:11;101790.22;;;2.21;100.00
71465;BME280;59274;49.874;9.154;2023-02-15T05:17:36;101790.50;;;2.20;100.00
71465;BME280;59274;49.874;9.154;2023-02-15T05:20:03;101796.09;;;2.23;100.00
71465;BME280;59274;49.874;9.154;2023-02-15T05:22:28;101800.41;;;2.19;100.00
71465;BME280;59274;49.874;9.154;2023-02-15T05:24:54;101799.03;;;2.22;100.00
71465;BME280;59274;49.874;9.154;2023-02-15T05:27:37;101788.81;;;2.29;100.00
71465;BME280;59274;49.874;9.154;2023-02-15T05:30:21;101793.69;;;2.22;100.00
71465;BME280;59274;49.874;9.154;2023-02-15T05:32:47;101791.34;;;2.10;100.00
71465;BME280;59274;49.874;9.154;2023-02-15T05:35:14;101791.34;;;2.10;100.00
71465;BME280;59274;49.874;9.154;2023-02-15T05:37:40;101789.47;;;2.11;100.00
71465;BME280;59274;49.874;9.154;2023-02-15T05:40:07;101787.16;;;1.94;100.00
71465;BME280;59274;49.874;9.154;2023-02-15T05:42:32;101777.25;;;1.94;100.00
71465;BME280;59274;49.874;9.154;2023-02-15T05:44:58;101787.38;;;2.03;100.00
71465;BME280;59274;49.874;9.154;2023-02-15T05:47:23;101792.47;;;1.99;100.00
71465;BME280;59274;49.874;9.154;2023-02-15T05:49:49;101785.06;;;1.81;100.00
71465;BME280;59274;49.874;9.154;2023-02-15T05:52:14;101788.09;;;1.64;100.00
71465;BME280;59274;49.874;9.154;2023-02-15T05:54:39;101784.38;;;1.60;100.00
71465;BME280;59274;49.874;9.154;2023-02-15T05:57:05;101784.13;;;1.51;100.00
71465;BME280;59274;49.874;9.154;2023-02-15T05:59:30;101787.09;;;1.45;100.00
71465;BME280;59274;49.874;9.154;2023-02-15T06:01:56;101787.03;;;1.60;100.00
71465;BME280;59274;49.874;9.154;2023-02-15T06:04:21;101790.22;;;1.67;100.00
71465;BME280;59274;49.874;9.154;2023-02-15T06:06:47;101784.34;;;1.70;100.00
71465;BME280;59274;49.874;9.154;2023-02-15T06:09:12;101782.69;;;1.74;100.00
71465;BME280;59274;49.874;9.154;2023-02-15T06:11:38;101785.94;;;1.66;100.00
71465;BME280;59274;49.874;9.154;2023-02-15T06:14:04;101784.69;;;1.48;100.00
71465;BME280;59274;49.874;9.154;2023-02-15T06:16:29;101786.50;;;1.63;100.00
71465;BME280;59274;49.874;9.154;2023-02-15T06:18:55;101777.63;;;1.68;100.00
71465;BME280;59274;49.874;9.154;2023-02-15T06:21:20;101784.06;;;1.67;100.00
71465;BME280;59274;49.874;9.154;2023-02-15T06:23:46;101784.91;;;1.62;100.00
71465;BME280;59274;49.874;9.154;2023-02-15T06:26:11;101799.31;;;1.66;100.00
71465;BME280;59274;49.874;9.154;2023-02-15T06:28:37;101803.38;;;1.58;100.00
71465;BME280;59274;49.874;9.154;2023-02-15T06:31:03;101809.78;;;1.57;100.00
71465;BME280;59274;49.874;9.154;2023-02-15T06:33:29;101807.94;;;1.53;100.00
71465;BME280;59274;49.874;9.154;2023-02-15T06:35:55;101806.56;;;1.66;100.00
71465;BME280;59274;49.874;9.154;2023-02-15T06:38:22;101802.50;;;1.73;100.00
71465;BME280;59274;49.874;9.154;2023-02-15T06:40:47;101809.97;;;1.81;100.00
71465;BME280;59274;49.874;9.154;2023-02-15T06:43:13;101822.84;;;1.79;100.00
71465;BME280;59274;49.874;9.154;2023-02-15T06:45:38;101821.47;;;1.87;100.00
71465;BME280;59274;49.874;9.154;2023-02-15T06:48:04;101826.59;;;1.83;100.00
71465;BME280;59274;49.874;9.154;2023-02-15T06:50:32;101827.09;;;1.90;100.00
71465;BME280;59274;49.874;9.154;2023-02-15T06:52:58;101822.81;;;1.89;100.00
71465;BME280;59274;49.874;9.154;2023-02-15T06:55:24;101828.75;;;1.76;100.00
71465;BME280;59274;49.874;9.154;2023-02-15T06:57:50;101831.44;;;1.76;100.00
71465;BME280;59274;49.874;9.154;2023-02-15T07:00:15;101825.56;;;1.69;100.00
71465;BME280;59274;49.874;9.154;2023-02-15T07:02:42;101823.97;;;1.58;100.00
71465;BME280;59274;49.874;9.154;2023-02-15T07:05:08;101822.97;;;1.49;100.00
71465;BME280;59274;49.874;9.154;2023-02-15T07:07:33;101828.56;;;1.42;100.00
71465;BME280;59274;49.874;9.154;2023-02-15T07:09:59;101832.63;;;1.25;100.00
71465;BME280;59274;49.874;9.154;2023-02-15T07:12:24;101832.88;;;1.28;100.00
71465;BME280;59274;49.874;9.154;2023-02-15T07:15:11;101834.25;;;1.26;100.00
71465;BME280;59274;49.874;9.154;2023-02-15T07:17:37;101831.84;;;1.24;100.00
71465;BME280;59274;49.874;9.154;2023-02-15T07:20:11;101834.28;;;1.05;100.00
71465;BME280;59274;49.874;9.154;2023-02-15T07:22:37;101833.72;;;1.08;100.00
71465;BME280;59274;49.874;9.154;2023-02-15T07:25:07;101827.31;;;1.04;100.00
71465;BME280;59274;49.874;9.154;2023-02-15T07:27:33;101824.09;;;1.02;100.00
71465;BME280;59274;49.874;9.154;2023-02-15T07:29:59;101819.81;;;1.06;100.00
71465;BME280;59274;49.874;9.154;2023-02-15T07:32:27;101815.28;;;1.02;100.00
71465;BME280;59274;49.874;9.154;2023-02-15T07:34:53;101817.69;;;1.03;100.00
71465;BME280;59274;49.874;9.154;2023-02-15T07:37:18;101824.63;;;1.04;100.00
71465;BME280;59274;49.874;9.154;2023-02-15T07:39:44;101838.53;;;1.16;100.00
71465;BME280;59274;49.874;9.154;2023-02-15T07:42:09;101833.16;;;1.22;100.00
71465;BME280;59274;49.874;9.154;2023-02-15T07:44:34;101828.63;;;1.27;100.00
71465;BME280;59274;49.874;9.154;2023-02-15T07:47:00;101835.03;;;1.26;100.00
71465;BME280;59274;49.874;9.154;2023-02-15T07:49:25;101826.47;;;1.24;100.00
71465;BME280;59274;49.874;9.154;2023-02-15T07:51:50;101825.41;;;1.30;100.00
71465;BME280;59274;49.874;9.154;2023-02-15T07:54:16;101831.78;;;1.44;100.00
71465;BME280;59274;49.874;9.154;2023-02-15T07:56:44;101831.78;;;1.54;100.00
71465;BME280;59274;49.874;9.154;2023-02-15T07:59:10;101830.94;;;1.59;100.00
71465;BME280;59274;49.874;9.154;2023-02-15T08:01:36;101832.31;;;1.51;100.00
71465;BME280;59274;49.874;9.154;2023-02-15T08:04:04;101827.50;;;1.53;100.00
71465;BME280;59274;49.874;9.154;2023-02-15T08:06:33;101833.38;;;1.55;100.00
71465;BME280;59274;49.874;9.154;2023-02-15T08:08:59;101831.50;;;1.56;100.00
71465;BME280;59274;49.874;9.154;2023-02-15T08:11:27;101832.06;;;1.48;100.00
71465;BME280;59274;49.874;9.154;2023-02-15T08:14:18;101831.22;;;1.63;100.00
71465;BME280;59274;49.874;9.154;2023-02-15T08:21:44;101829.38;;;1.43;100.00
71465;BME280;59274;49.874;9.154;2023-02-15T08:24:14;101831.81;;;1.34;100.00
71465;BME280;59274;49.874;9.154;2023-02-15T08:26:41;101827.25;;;1.30;100.00
71465;BME280;59274;49.874;9.154;2023-02-15T08:29:08;101836.13;;;1.20;100.00
71465;BME280;59274;49.874;9.154;2023-02-15T08:31:37;101835.84;;;1.27;100.00
71465;BME280;59274;49.874;9.154;2023-02-15T08:34:03;101831.25;;;1.42;100.00
71465;BME280;59274;49.874;9.154;2023-02-15T08:36:30;101831.47;;;1.66;100.00
71465;BME280;59274;49.874;9.154;2023-02-15T08:39:02;101826.03;;;1.86;100.00
71465;BME280;59274;49.874;9.154;2023-02-15T08:41:30;101825.69;;;2.03;100.00
71465;BME280;59274;49.874;9.154;2023-02-15T08:43:58;101824.00;;;2.17;100.00
71465;BME280;59274;49.874;9.154;2023-02-15T08:46:26;101818.34;;;2.24;100.00
71465;BME280;59274;49.874;9.154;2023-02-15T08:48:52;101816.69;;;2.33;100.00
71465;BME280;59274;49.874;9.154;2023-02-15T08:51:20;101806.19;;;2.36;100.00
71465;BME280;59274;49.874;9.154;2023-02-15T08:53:48;101807.16;;;2.51;100.00
71465;BME280;59274;49.874;9.154;2023-02-15T08:56:15;101812.03;;;2.44;100.00
71465;BME280;59274;49.874;9.154;2023-02-15T08:58:41;101807.75;;;2.43;100.00
71465;BME280;59274;49.874;9.154;2023-02-15T09:01:14;101810.91;;;2.55;100.00
71465;BME280;59274;49.874;9.154;2023-02-15T09:03:47;101804.53;;;2.46;100.00
71465;BME280;59274;49.874;9.154;2023-02-15T09:06:13;101803.38;;;2.57;100.00
71465;BME280;59274;49.874;9.154;2023-02-15T09:08:39;101798.06;;;2.52;100.00
71465;BME280;59274;49.874;9.154;2023-02-15T09:11:23;101793.53;;;2.47;100.00
71465;BME280;59274;49.874;9.154;2023-02-15T09:14:01;101785.41;;;2.57;100.00
71465;BME280;59274;49.874;9.154;2023-02-15T09:16:31;101782.44;;;2.59;100.00
71465;BME280;59274;49.874;9.154;2023-02-15T09:18:58;101780.78;;;2.29;100.00
71465;BME280;59274;49.874;9.154;2023-02-15T09:21:24;101783.69;;;2.38;100.00
71465;BME280;59274;49.874;9.154;2023-02-15T09:23:54;101775.47;;;2.58;100.00
71465;BME280;59274;49.874;9.154;2023-02-15T09:26:22;101777.34;;;2.62;100.00
71465;BME280;59274;49.874;9.154;2023-02-15T09:28:51;101774.59;;;2.67;100.00
71465;BME280;59274;49.874;9.154;2023-02-15T09:31:20;101773.81;;;2.67;100.00
71465;BME280;59274;49.874;9.154;2023-02-15T09:33:46;101775.56;;;2.82;100.00
71465;BME280;59274;49.874;9.154;2023-02-15T09:38:55;101777.03;;;2.93;100.00
71465;BME280;59274;49.874;9.154;2023-02-15T10:15:52;101764.88;;;2.77;100.00
71465;BME280;59274;49.874;9.154;2023-02-15T10:18:45;101757.22;;;2.60;100.00
71465;BME280;59274;49.874;9.154;2023-02-15T10:24:18;101765.38;;;2.45;100.00
71465;BME280;59274;49.874;9.154;2023-02-15T10:26:48;101766.41;;;2.49;100.00
71465;BME280;59274;49.874;9.154;2023-02-15T10:34:39;101755.81;;;2.67;100.00
71465;BME280;59274;49.874;9.154;2023-02-15T10:45:56;101753.69;;;3.88;97.36
71465;BME280;59274;49.874;9.154;2023-02-15T10:48:42;101756.22;;;4.17;95.82
71465;BME280;59274;49.874;9.154;2023-02-15T10:53:56;101766.91;;;4.22;95.49
71465;BME280;59274;49.874;9.154;2023-02-15T10:59:26;101784.84;;;3.89;95.86
71465;BME280;59274;49.874;9.154;2023-02-15T11:01:59;101782.88;;;3.76;96.53
71465;BME280;59274;49.874;9.154;2023-02-15T11:04:44;101777.44;;;3.58;96.25
71465;BME280;59274;49.874;9.154;2023-02-15T11:09:51;101770.66;;;3.84;94.59
71465;BME280;59274;49.874;9.154;2023-02-15T11:12:23;101764.59;;;3.97;95.68
71465;BME280;59274;49.874;9.154;2023-02-15T11:15:00;101769.28;;;3.86;97.10
71465;BME280;59274;49.874;9.154;2023-02-15T11:17:50;101764.88;;;3.96;95.27
71465;BME280;59274;49.874;9.154;2023-02-15T11:22:55;101765.00;;;3.85;96.63
71465;BME280;59274;49.874;9.154;2023-02-15T11:25:32;101762.47;;;3.75;96.88
71465;BME280;59274;49.874;9.154;2023-02-15T11:28:00;101758.16;;;3.93;95.30
71465;BME280;59274;49.874;9.154;2023-02-15T11:30:54;101755.50;;;3.93;94.98
71465;BME280;59274;49.874;9.154;2023-02-15T11:33:23;101750.47;;;4.05;94.38
71465;BME280;59274;49.874;9.154;2023-02-15T11:36:00;101756.59;;;4.11;94.75
71465;BME280;59274;49.874;9.154;2023-02-15T11:38:31;101749.97;;;4.03;95.89
71465;BME280;59274;49.874;9.154;2023-02-15T11:41:10;101753.97;;;3.87;96.37
71465;BME280;59274;49.874;9.154;2023-02-15T11:46:20;101747.84;;;4.38;94.19
71465;BME280;59274;49.874;9.154;2023-02-15T11:48:47;101747.72;;;4.29;94.79
71465;BME280;59274;49.874;9.154;2023-02-15T11:51:16;101745.97;;;4.19;94.21
71465;BME280;59274;49.874;9.154;2023-02-15T11:53:43;101733.09;;;4.67;94.18
71465;BME280;59274;49.874;9.154;2023-02-15T11:56:17;101737.56;;;4.58;92.22
71465;BME280;59274;49.874;9.154;2023-02-15T11:58:47;101732.69;;;4.60;92.38
71465;BME280;59274;49.874;9.154;2023-02-15T12:01:27;101726.75;;;5.04;90.34
71465;BME280;59274;49.874;9.154;2023-02-15T12:06:49;101739.22;;;5.00;90.63
71465;BME280;59274;49.874;9.154;2023-02-15T12:11:54;101726.03;;;4.71;91.68
71465;BME280;59274;49.874;9.154;2023-02-15T12:14:54;101720.50;;;4.95;91.11
71465;BME280;59274;49.874;9.154;2023-02-15T12:17:22;101715.69;;;5.20;88.38
71465;BME280;59274;49.874;9.154;2023-02-15T12:19:49;101721.47;;;5.40;90.10
71465;BME280;59274;49.874;9.154;2023-02-15T12:22:38;101708.53;;;5.01;90.39
71465;BME280;59274;49.874;9.154;2023-02-15T12:25:22;101708.31;;;5.53;88.70
71465;BME280;59274;49.874;9.154;2023-02-15T12:27:48;101700.56;;;5.24;88.65
71465;BME280;59274;49.874;9.154;2023-02-15T12:30:25;101691.84;;;5.40;89.68
71465;BME280;59274;49.874;9.154;2023-02-15T12:32:59;101699.97;;;5.76;89.69
71465;BME280;59274;49.874;9.154;2023-02-15T12:35:31;101693.72;;;6.25;85.57
71465;BME280;59274;49.874;9.154;2023-02-15T12:38:21;101683.13;;;5.71;87.31
71465;BME280;59274;49.874;9.154;2023-02-15T12:41:25;101673.69;;;5.96;87.83
71465;BME280;59274;49.874;9.154;2023-02-15T12:44:09;101678.47;;;6.21;86.24
71465;BME280;59274;49.874;9.154;2023-02-15T12:46:40;101674.25;;;6.06;85.61
71465;BME280;59274;49.874;9.154;2023-02-15T12:49:18;101671.97;;;6.00;85.74
71465;BME280;59274;49.874;9.154;2023-02-15T12:51:57;101675.00;;;5.84;87.09
71465;BME280;59274;49.874;9.154;2023-02-15T12:56:58;101666.56;;;5.64;88.97
71465;BME280;59274;49.874;9.154;2023-02-15T12:59:24;101656.16;;;5.21;90.00
71465;BME280;59274;49.874;9.154;2023-02-15T13:01:53;101654.47;;;5.11;91.06
71465;BME280;59274;49.874;9.154;2023-02-15T13:04:27;101656.28;;;5.16;90.13
71465;BME280;59274;49.874;9.154;2023-02-15T13:06:57;101647.50;;;4.83;90.79
71465;BME280;59274;49.874;9.154;2023-02-15T13:11:57;101640.72;;;4.99;92.88
71465;BME280;59274;49.874;9.154;2023-02-15T13:14:33;101637.19;;;5.26;92.42
71465;BME280;59274;49.874;9.154;2023-02-15T13:17:02;101636.06;;;5.41;90.79
71465;BME280;59274;49.874;9.154;2023-02-15T13:19:45;101632.84;;;5.66;89.55
71465;BME280;59274;49.874;9.154;2023-02-15T13:22:38;101623.56;;;5.95;87.48
71465;BME280;59274;49.874;9.154;2023-02-15T13:27:42;101615.06;;;5.65;89.11
71465;BME280;59274;49.874;9.154;2023-02-15T13:32:55;101615.69;;;5.84;89.45
71465;BME280;59274;49.874;9.154;2023-02-15T13:35:24;101597.59;;;5.85;89.36
71465;BME280;59274;49.874;9.154;2023-02-15T13:40:51;101592.78;;;5.73;88.62
71465;BME280;59274;49.874;9.154;2023-02-15T13:43:20;101588.34;;;5.55;90.09
71465;BME280;59274;49.874;9.154;2023-02-15T13:51:45;101589.66;;;5.80;89.44
71465;BME280;59274;49.874;9.154;2023-02-15T13:54:33;101578.38;;;5.78;88.89
71465;BME280;59274;49.874;9.154;2023-02-15T14:18:57;101573.22;;;6.43;85.59
71465;BME280;59274;49.874;9.154;2023-02-15T14:21:30;101560.19;;;6.37;84.95
71465;BME280;59274;49.874;9.154;2023-02-15T14:31:47;101560.22;;;6.45;86.63
71465;BME280;59274;49.874;9.154;2023-02-15T14:37:03;101558.94;;;6.43;86.46
71465;BME280;59274;49.874;9.154;2023-02-15T14:39:33;101552.94;;;6.54;86.32
71465;BME280;59274;49.874;9.154;2023-02-15T14:45:28;101546.84;;;6.97;84.85
71465;BME280;59274;49.874;9.154;2023-02-15T14:48:05;101541.94;;;6.99;83.79
71465;BME280;59274;49.874;9.154;2023-02-15T14:50:40;101534.81;;;7.12;83.49
71465;BME280;59274;49.874;9.154;2023-02-15T14:56:21;101536.03;;;6.80;84.13
71465;BME280;59274;49.874;9.154;2023-02-15T15:01:28;101531.31;;;7.02;83.65
71465;BME280;59274;49.874;9.154;2023-02-15T15:03:58;101540.50;;;6.93;84.18
71465;BME280;59274;49.874;9.154;2023-02-15T15:06:27;101534.16;;;7.06;83.68
71465;BME280;59274;49.874;9.154;2023-02-15T15:08:59;101540.84;;;7.26;83.26
71465;BME280;59274;49.874;9.154;2023-02-15T15:13:58;101541.81;;;7.30;82.28
71465;BME280;59274;49.874;9.154;2023-02-15T15:18:55;101542.78;;;7.34;81.04
71465;BME280;59274;49.874;9.154;2023-02-15T15:49:01;101540.19;;;6.07;85.17
71465;BME280;59274;49.874;9.154;2023-02-15T15:51:32;101537.50;;;5.84;86.79
71465;BME280;59274;49.874;9.154;2023-02-15T15:53:59;101536.69;;;5.53;88.12
71465;BME280;59274;49.874;9.154;2023-02-15T15:56:33;101537.81;;;5.38;88.75
71465;BME280;59274;49.874;9.154;2023-02-15T15:59:07;101542.97;;;5.12;89.92
71465;BME280;59274;49.874;9.154;2023-02-15T16:01:42;101537.97;;;4.70;91.72
71465;BME280;59274;49.874;9.154;2023-02-15T16:04:23;101542.94;;;4.36;93.85
71465;BME280;59274;49.874;9.154;2023-02-15T16:06:49;101540.94;;;4.14;95.14
71465;BME280;59274;49.874;9.154;2023-02-15T16:09:25;101544.16;;;3.83;97.15
71465;BME280;59274;49.874;9.154;2023-02-15T16:11:53;101546.31;;;3.68;98.28
71465;BME280;59274;49.874;9.154;2023-02-15T16:16:53;101550.03;;;3.53;99.30
71465;BME280;59274;49.874;9.154;2023-02-15T16:19:27;101543.63;;;3.49;99.35
71465;BME280;59274;49.874;9.154;2023-02-15T16:21:54;101546.19;;;3.40;99.95
71465;BME280;59274;49.874;9.154;2023-02-15T16:30:17;101554.88;;;2.95;100.00
71465;BME280;59274;49.874;9.154;2023-02-15T16:32:43;101551.41;;;2.70;100.00